createdAt,value
2022-10-11T00:00:36.373Z,63.69
2022-10-11T00:03:03.483Z,63.89
2022-10-11T00:05:30.330Z,64.26
2022-10-11T00:07:57.173Z,63.84
2022-10-11T00:10:24.564Z,63.31
2022-10-11T00:12:52.649Z,63.52
2022-10-11T00:15:21.936Z,63.93
2022-10-11T00:17:48.682Z,63.06
2022-10-11T00:20:15.263Z,62.89
2022-10-11T00:22:42.471Z,63.45
2022-10-11T00:25:10.671Z,63.68
2022-10-11T00:27:37.643Z,63.22
2022-10-11T00:30:08.674Z,63.75
2022-10-11T00:32:37.387Z,63.36
2022-10-11T00:35:06.436Z,63.42
2022-10-11T00:37:38.469Z,64.09
2022-10-11T00:40:13.172Z,63.55
2022-10-11T00:42:40.345Z,64.15
2022-10-11T00:45:31.757Z,63.63
2022-10-11T00:48:09.506Z,63.70
2022-10-11T00:50:36.740Z,63.79
2022-10-11T00:53:09.986Z,63.90
2022-10-11T00:55:41.949Z,63.42
2022-10-11T00:58:09.474Z,64.03
2022-10-11T01:00:36.111Z,63.68
2022-10-11T01:03:04.678Z,63.99
2022-10-11T01:05:31.947Z,64.24
2022-10-11T01:08:02.581Z,64.03
2022-10-11T01:10:29.787Z,64.49
2022-10-11T01:13:24.465Z,64.36
2022-10-11T01:15:57.645Z,64.47
2022-10-11T01:18:27.173Z,64.76
2022-10-11T01:21:38.243Z,64.95
2022-10-11T01:24:26.144Z,64.65
2022-10-11T01:27:17.656Z,64.57
2022-10-11T01:30:02.444Z,64.60
2022-10-11T01:32:31.777Z,64.88
2022-10-11T01:35:12.496Z,64.81
2022-10-11T01:37:43.664Z,64.28
2022-10-11T01:40:17.634Z,64.46
2022-10-11T01:42:45.448Z,64.33
2022-10-11T01:45:16.207Z,64.71
2022-10-11T01:47:42.875Z,64.21
2022-10-11T01:50:31.358Z,64.53
2022-10-11T01:53:01.661Z,64.80
2022-10-11T01:55:39.257Z,64.62
2022-10-11T01:58:15.135Z,64.63
2022-10-11T02:00:47.708Z,64.86
2022-10-11T02:03:17.186Z,64.34
2022-10-11T02:05:49.550Z,64.76
2022-10-11T02:08:47.714Z,65.25
2022-10-11T02:11:20.930Z,65.28
2022-10-11T02:13:57.941Z,65.49
2022-10-11T02:16:33.311Z,65.77
2022-10-11T02:19:04.598Z,65.79
2022-10-11T02:21:34.692Z,66.07
2022-10-11T02:24:05.850Z,65.63
2022-10-11T02:26:34.966Z,65.42
2022-10-11T02:29:05.087Z,65.65
2022-10-11T02:31:35.217Z,65.51
2022-10-11T02:34:07.779Z,64.89
2022-10-11T02:37:04.238Z,65.67
2022-10-11T02:39:47.639Z,65.00
2022-10-11T02:42:19.997Z,65.08
2022-10-11T02:45:06.988Z,65.14
2022-10-11T02:47:34.218Z,65.60
2022-10-11T02:50:01.333Z,65.46
2022-10-11T02:52:28.122Z,65.57
2022-10-11T02:54:54.592Z,66.16
2022-10-11T02:57:21.379Z,66.15
2022-10-11T02:59:47.933Z,65.88
2022-10-11T03:02:14.714Z,65.95
2022-10-11T03:04:41.293Z,65.70
2022-10-11T03:07:07.915Z,65.80
2022-10-11T03:09:35.624Z,65.72
2022-10-11T03:12:02.348Z,65.83
2022-10-11T03:14:28.838Z,65.87
2022-10-11T03:16:55.779Z,65.72
2022-10-11T03:19:24.622Z,65.80
2022-10-11T03:21:51.194Z,65.80
2022-10-11T03:24:17.859Z,65.88
2022-10-11T03:26:44.503Z,65.54
2022-10-11T03:29:11.184Z,66.27
2022-10-11T03:31:37.687Z,66.19
2022-10-11T03:34:04.205Z,66.34
2022-10-11T03:36:30.674Z,65.82
2022-10-11T03:38:57.308Z,66.35
2022-10-11T03:41:23.884Z,65.88
2022-10-11T03:43:50.391Z,66.04
2022-10-11T03:46:17.010Z,66.17
2022-10-11T03:48:43.717Z,66.25
2022-10-11T03:51:11.281Z,65.68
2022-10-11T03:53:37.808Z,65.46
2022-10-11T03:56:08.470Z,65.50
2022-10-11T03:58:35.367Z,65.77
2022-10-11T04:01:01.975Z,66.10
2022-10-11T04:03:28.646Z,66.40
2022-10-11T04:05:55.311Z,66.46
2022-10-11T04:08:21.981Z,66.59
2022-10-11T04:10:49.124Z,66.06
2022-10-11T04:13:15.901Z,66.10
2022-10-11T04:15:42.602Z,66.63
2022-10-11T04:18:09.787Z,66.45
2022-10-11T04:20:36.456Z,66.77
2022-10-11T04:23:03.054Z,67.24
2022-10-11T04:25:29.621Z,67.35
2022-10-11T04:27:56.263Z,67.20
2022-10-11T04:30:23.568Z,66.97
2022-10-11T04:32:50.231Z,67.00
2022-10-11T04:35:16.846Z,66.83
2022-10-11T04:37:43.395Z,67.63
2022-10-11T04:40:10.705Z,67.62
2022-10-11T04:42:37.328Z,67.28
2022-10-11T04:45:06.112Z,67.27
2022-10-11T04:47:32.649Z,67.49
2022-10-11T04:49:59.265Z,67.83
2022-10-11T04:52:26.203Z,67.60
2022-10-11T04:54:52.818Z,67.59
2022-10-11T04:57:19.403Z,67.61
2022-10-11T04:59:50.008Z,67.11
2022-10-11T05:02:17.032Z,67.73
2022-10-11T05:04:43.801Z,67.53
2022-10-11T05:07:10.268Z,67.80
2022-10-11T05:09:36.929Z,68.02
2022-10-11T05:12:03.707Z,67.86
2022-10-11T05:14:30.345Z,68.04
2022-10-11T05:16:58.015Z,67.98
2022-10-11T05:19:25.584Z,67.70
2022-10-11T05:21:52.255Z,67.97
2022-10-11T05:24:18.954Z,68.27
2022-10-11T05:26:45.787Z,67.93
2022-10-11T05:29:12.453Z,68.01
2022-10-11T05:31:39.107Z,68.16
2022-10-11T05:34:05.710Z,68.00
2022-10-11T05:36:32.670Z,67.61
2022-10-11T05:38:59.543Z,67.96
2022-10-11T05:41:26.168Z,68.37
2022-10-11T05:43:52.664Z,68.68
2022-10-11T05:46:19.405Z,68.77
2022-10-11T05:48:46.029Z,68.94
2022-10-11T05:51:12.803Z,68.79
2022-10-11T05:53:40.057Z,68.71
2022-10-11T05:56:19.136Z,68.67
2022-10-11T05:58:45.980Z,68.83
2022-10-11T06:01:26.856Z,68.81
2022-10-11T06:03:53.818Z,68.65
2022-10-11T06:06:20.562Z,68.45
2022-10-11T06:08:48.154Z,68.72
2022-10-11T06:11:25.287Z,68.46
2022-10-11T06:13:57.455Z,68.38
2022-10-11T06:16:25.388Z,68.41
2022-10-11T06:18:57.016Z,68.44
2022-10-11T06:21:24.082Z,68.94
2022-10-11T06:23:55.574Z,68.00
2022-10-11T06:26:25.142Z,68.32
2022-10-11T06:28:52.758Z,68.23
2022-10-11T06:31:19.409Z,68.95
2022-10-11T06:33:46.532Z,68.91
2022-10-11T06:36:14.904Z,68.52
2022-10-11T06:38:44.967Z,68.14
2022-10-11T06:41:24.855Z,67.83
2022-10-11T06:43:51.847Z,66.75
2022-10-11T06:46:20.164Z,66.95
2022-10-11T06:48:51.362Z,66.42
2022-10-11T06:51:20.090Z,66.92
2022-10-11T06:53:57.115Z,66.90
2022-10-11T06:56:25.252Z,66.21
2022-10-11T06:58:56.124Z,65.86
2022-10-11T07:01:24.028Z,65.97
2022-10-11T07:03:52.320Z,66.27
2022-10-11T07:06:25.331Z,65.46
2022-10-11T07:08:52.840Z,65.09
2022-10-11T07:11:23.210Z,65.04
2022-10-11T07:13:56.276Z,65.10
2022-10-11T07:16:23.487Z,65.26
2022-10-11T07:18:58.722Z,64.63
2022-10-11T07:21:26.914Z,65.10
2022-10-11T07:23:53.732Z,64.84
2022-10-11T07:26:20.560Z,64.13
2022-10-11T07:28:47.602Z,63.80
2022-10-11T07:31:17.659Z,64.38
2022-10-11T07:33:44.292Z,63.95
2022-10-11T07:36:11.781Z,64.40
2022-10-11T07:38:43.094Z,64.13
2022-10-11T07:41:10.626Z,63.93
2022-10-11T07:43:38.574Z,64.21
2022-10-11T07:46:06.080Z,64.25
2022-10-11T07:48:34.712Z,64.31
2022-10-11T07:51:06.977Z,64.04
2022-10-11T07:53:39.587Z,63.17
2022-10-11T07:56:07.039Z,63.57
2022-10-11T07:58:34.021Z,64.03
2022-10-11T08:01:00.623Z,63.73
2022-10-11T08:03:27.441Z,63.55
2022-10-11T08:05:54.092Z,63.55
2022-10-11T08:08:20.708Z,63.14
2022-10-11T08:10:47.434Z,63.07
2022-10-11T08:13:15.225Z,62.61
2022-10-11T08:15:41.864Z,62.32
2022-10-11T08:18:08.601Z,63.14
2022-10-11T08:20:37.954Z,62.68
2022-10-11T08:23:05.195Z,62.69
2022-10-11T08:25:31.860Z,62.74
2022-10-11T08:27:58.543Z,63.52
2022-10-11T08:30:25.342Z,63.14
2022-10-11T08:32:52.009Z,62.76
2022-10-11T08:35:18.703Z,63.13
2022-10-11T08:37:45.348Z,63.58
2022-10-11T08:40:16.119Z,63.65
2022-10-11T08:42:48.273Z,62.73
2022-10-11T08:45:39.409Z,62.50
2022-10-11T08:48:33.663Z,61.90
2022-10-11T08:51:01.467Z,62.05
2022-10-11T08:53:55.889Z,61.73
2022-10-11T08:56:26.145Z,61.71
2022-10-11T08:59:21.227Z,61.33
2022-10-11T09:01:54.616Z,61.03
2022-10-11T09:04:21.253Z,61.00
2022-10-11T09:07:08.006Z,60.50
2022-10-11T09:09:50.941Z,60.32
2022-10-11T09:12:41.068Z,59.84
2022-10-11T09:15:29.381Z,59.78
2022-10-11T09:18:13.650Z,59.03
2022-10-11T09:21:02.099Z,59.48
2022-10-11T09:23:43.998Z,58.21
2022-10-11T09:26:13.706Z,58.09
2022-10-11T09:29:01.222Z,57.91
2022-10-11T09:31:32.125Z,58.27
2022-10-11T09:34:06.795Z,57.80
2022-10-11T09:36:54.794Z,57.32
2022-10-11T09:39:34.292Z,57.03
2022-10-11T09:42:11.339Z,56.95
2022-10-11T09:44:37.859Z,56.57
2022-10-11T09:47:06.324Z,56.04
2022-10-11T09:49:42.927Z,55.33
2022-10-11T09:52:21.728Z,54.39
2022-10-11T09:55:00.513Z,54.42
2022-10-11T09:57:34.457Z,54.16
2022-10-11T10:00:21.161Z,53.90
2022-10-11T10:02:54.521Z,54.30
2022-10-11T10:05:27.136Z,53.52
2022-10-11T10:08:05.247Z,52.49
2022-10-11T10:10:40.067Z,52.86
2022-10-11T10:13:22.272Z,52.51
2022-10-11T10:15:53.679Z,52.59
2022-10-11T10:18:30.079Z,52.48
2022-10-11T10:20:59.771Z,52.43
2022-10-11T10:23:30.442Z,51.33
2022-10-11T10:26:17.421Z,51.06
2022-10-11T10:29:10.287Z,51.34
2022-10-11T10:32:02.041Z,51.12
2022-10-11T10:34:36.616Z,50.39
2022-10-11T10:37:15.024Z,50.58
2022-10-11T10:39:59.607Z,49.45
2022-10-11T10:42:26.501Z,49.86
2022-10-11T10:44:55.448Z,48.83
2022-10-11T10:47:47.601Z,49.04
2022-10-11T10:50:27.215Z,48.30
2022-10-11T10:53:05.697Z,47.65
2022-10-11T10:55:39.677Z,47.53
2022-10-11T10:58:27.905Z,47.15
2022-10-11T11:01:02.489Z,46.51
2022-10-11T11:03:42.538Z,46.58
2022-10-11T11:06:49.540Z,45.83
2022-10-11T11:09:31.822Z,45.38
2022-10-11T11:12:23.394Z,45.38
2022-10-11T11:15:13.016Z,45.43
2022-10-11T11:18:05.077Z,46.01
2022-10-11T11:20:49.525Z,46.41
2022-10-11T11:23:48.899Z,46.50
2022-10-11T11:26:30.759Z,47.21
2022-10-11T11:29:31.833Z,47.74
2022-10-11T11:32:20.370Z,48.21
2022-10-11T11:34:53.236Z,47.91
2022-10-11T11:37:22.843Z,47.25
2022-10-11T11:39:53.938Z,46.51
2022-10-11T11:42:30.075Z,46.14
2022-10-11T11:44:57.437Z,46.51
2022-10-11T11:47:31.763Z,46.98
2022-10-11T11:50:03.541Z,47.50
2022-10-11T11:52:37.082Z,48.18
2022-10-11T11:55:14.037Z,48.32
2022-10-11T11:57:52.952Z,48.12
2022-10-11T12:00:22.492Z,48.09
2022-10-11T12:02:53.319Z,47.32
2022-10-11T12:05:23.366Z,47.56
2022-10-11T12:08:31.011Z,47.28
2022-10-11T12:11:01.383Z,46.93
2022-10-11T12:13:39.697Z,47.32
2022-10-11T12:16:06.202Z,47.42
2022-10-11T12:18:41.911Z,47.66
2022-10-11T12:21:36.820Z,49.15
2022-10-11T12:24:21.915Z,48.48
2022-10-11T12:26:54.225Z,47.58
2022-10-11T12:29:43.027Z,47.58
2022-10-11T12:32:11.813Z,46.91
2022-10-11T12:34:42.900Z,46.85
2022-10-11T12:37:18.939Z,46.51
2022-10-11T12:39:56.578Z,47.18
2022-10-11T12:42:37.196Z,47.30
2022-10-11T12:45:14.716Z,46.00
2022-10-11T12:48:04.781Z,47.29
2022-10-11T12:50:37.637Z,46.44
2022-10-11T12:53:31.553Z,46.63
2022-10-11T12:56:26.156Z,46.33
2022-10-11T12:59:02.952Z,46.33
2022-10-11T13:01:36.246Z,46.68
2022-10-11T13:04:11.759Z,46.86
2022-10-11T13:06:49.757Z,47.50
2022-10-11T13:09:33.410Z,46.99
2022-10-11T13:12:18.235Z,47.26
2022-10-11T13:14:48.309Z,47.03
2022-10-11T13:17:25.581Z,47.00
2022-10-11T13:20:09.226Z,45.87
2022-10-11T13:22:39.940Z,46.10
2022-10-11T13:25:08.142Z,46.41
2022-10-11T13:27:37.644Z,46.34
2022-10-11T13:30:11.702Z,46.49
2022-10-11T13:32:38.538Z,46.94
2022-10-11T13:35:14.779Z,46.97
2022-10-11T13:37:45.946Z,46.55
2022-10-11T13:40:18.901Z,46.48
2022-10-11T13:42:48.589Z,46.29
2022-10-11T13:45:25.001Z,46.36
2022-10-11T13:47:54.465Z,47.00
2022-10-11T13:50:32.200Z,46.96
2022-10-11T13:53:04.058Z,48.14
2022-10-11T13:55:33.862Z,48.44
2022-10-11T13:58:03.234Z,47.80
2022-10-11T14:00:39.836Z,47.00
2022-10-11T14:03:15.440Z,47.63
2022-10-11T14:05:53.644Z,47.74
2022-10-11T14:08:58.592Z,47.68
2022-10-11T14:11:36.418Z,47.73
2022-10-11T14:14:34.279Z,47.53
2022-10-11T14:17:09.898Z,47.68
2022-10-11T14:19:36.645Z,47.78
2022-10-11T14:22:12.078Z,48.47
2022-10-11T14:24:38.727Z,48.12
2022-10-11T14:27:06.277Z,48.31
2022-10-11T14:29:36.207Z,48.16
2022-10-11T14:32:10.851Z,48.55
2022-10-11T14:34:38.833Z,47.66
2022-10-11T14:37:05.752Z,47.56
2022-10-11T14:39:33.274Z,47.33
2022-10-11T14:42:00.051Z,47.31
2022-10-11T14:44:26.904Z,47.11
2022-10-11T14:46:54.995Z,47.01
2022-10-11T14:49:25.426Z,47.02
2022-10-11T14:51:53.391Z,47.30
2022-10-11T14:54:23.802Z,47.18
2022-10-11T14:56:55.883Z,47.54
2022-10-11T14:59:25.581Z,47.49
2022-10-11T15:01:53.995Z,48.19
2022-10-11T15:04:26.332Z,47.95
2022-10-11T15:06:54.886Z,47.56
2022-10-11T15:09:21.749Z,48.37
2022-10-11T15:11:50.185Z,47.84
2022-10-11T15:14:17.198Z,47.90
2022-10-11T15:16:44.057Z,47.72
2022-10-11T15:21:50.348Z,48.14
2022-10-11T15:24:19.974Z,47.64
2022-10-11T15:26:47.915Z,48.47
2022-10-11T15:29:17.720Z,47.88
2022-10-11T15:31:44.817Z,47.51
2022-10-11T15:34:11.553Z,47.54
2022-10-11T15:36:38.586Z,48.04
2022-10-11T15:39:23.121Z,48.44
2022-10-11T15:41:49.956Z,48.26
2022-10-11T15:44:16.866Z,47.91
2022-10-11T15:46:43.903Z,47.94
2022-10-11T15:49:17.635Z,47.88
2022-10-11T15:51:44.190Z,48.04
2022-10-11T15:54:10.844Z,48.59
2022-10-11T15:56:37.535Z,47.77
2022-10-11T15:59:04.286Z,48.09
2022-10-11T16:01:31.136Z,47.96
2022-10-11T16:03:57.936Z,48.14
2022-10-11T16:06:24.681Z,48.12
2022-10-11T16:08:51.310Z,48.31
2022-10-11T16:11:18.038Z,48.61
2022-10-11T16:13:45.247Z,49.26
2022-10-11T16:16:12.705Z,49.56
2022-10-11T16:18:39.900Z,49.73
2022-10-11T16:21:10.119Z,49.15
2022-10-11T16:23:37.161Z,49.18
2022-10-11T16:26:08.441Z,49.15
2022-10-11T16:28:36.449Z,49.34
2022-10-11T16:31:08.342Z,49.16
2022-10-11T16:33:35.132Z,49.08
2022-10-11T16:36:26.071Z,49.03
2022-10-11T16:38:52.589Z,49.35
2022-10-11T16:41:19.226Z,49.92
2022-10-11T16:43:45.887Z,50.22
2022-10-11T16:46:12.520Z,50.61
2022-10-11T16:48:39.266Z,50.91
2022-10-11T16:51:07.797Z,51.33
2022-10-11T16:53:35.468Z,51.45
2022-10-11T16:56:13.461Z,51.98
2022-10-11T16:58:40.428Z,51.84
2022-10-11T17:03:44.427Z,52.20
2022-10-11T17:06:11.247Z,52.50
2022-10-11T17:08:38.088Z,52.74
2022-10-11T17:11:09.774Z,52.91
2022-10-11T17:13:38.394Z,52.91
2022-10-11T17:16:06.138Z,53.31
2022-10-11T17:18:55.301Z,53.81
2022-10-11T17:21:24.691Z,53.66
2022-10-11T17:23:54.245Z,53.87
2022-10-11T17:26:28.024Z,53.98
2022-10-11T17:28:59.525Z,54.44
2022-10-11T17:31:26.248Z,55.07
2022-10-11T17:33:56.471Z,54.81
2022-10-11T17:36:32.128Z,54.50
2022-10-11T17:39:03.696Z,54.67
2022-10-11T17:41:32.211Z,55.31
2022-10-11T17:43:59.747Z,55.24
2022-10-11T17:46:28.153Z,55.54
2022-10-11T17:48:55.726Z,55.35
2022-10-11T17:51:22.778Z,56.08
2022-10-11T17:53:53.257Z,55.81
2022-10-11T17:56:28.196Z,56.18
2022-10-11T17:58:57.154Z,56.41
2022-10-11T18:01:26.449Z,56.49
2022-10-11T18:04:02.032Z,56.75
2022-10-11T18:06:32.078Z,57.35
2022-10-11T18:09:04.055Z,57.24
2022-10-11T18:11:31.611Z,56.72
2022-10-11T18:14:01.213Z,56.87
2022-10-11T18:16:30.966Z,56.51
2022-10-11T18:18:59.073Z,56.39
2022-10-11T18:21:33.457Z,57.09
2022-10-11T18:24:13.679Z,57.85
2022-10-11T18:26:40.791Z,57.85
2022-10-11T18:29:09.904Z,57.96
2022-10-11T18:31:36.939Z,58.20
2022-10-11T18:34:05.880Z,58.20
2022-10-11T18:36:33.983Z,58.13
2022-10-11T18:39:06.084Z,58.29
2022-10-11T18:41:40.272Z,58.46
2022-10-11T18:44:28.993Z,58.43
2022-10-11T18:47:01.413Z,58.58
2022-10-11T18:49:28.624Z,58.37
2022-10-11T18:51:55.412Z,58.54
2022-10-11T18:54:24.122Z,59.00
2022-10-11T18:56:52.173Z,59.12
2022-10-11T18:59:26.079Z,59.34
2022-10-11T19:01:55.313Z,59.51
2022-10-11T19:04:22.052Z,59.64
2022-10-11T19:06:49.198Z,59.55
2022-10-11T19:09:21.762Z,59.51
2022-10-11T19:11:53.103Z,59.59
2022-10-11T19:14:25.870Z,60.04
2022-10-11T19:16:53.888Z,60.04
2022-10-11T19:19:24.043Z,59.98
2022-10-11T19:21:50.813Z,60.31
2022-10-11T19:24:19.640Z,60.13
2022-10-11T19:26:47.507Z,60.32
2022-10-11T19:29:19.942Z,60.27
2022-10-11T19:31:52.061Z,60.45
2022-10-11T19:34:19.637Z,60.46
2022-10-11T19:36:46.691Z,60.50
2022-10-11T19:39:15.312Z,60.79
2022-10-11T19:41:42.952Z,60.84
2022-10-11T19:44:16.917Z,60.57
2022-10-11T19:46:51.506Z,60.93
2022-10-11T19:49:21.966Z,61.10
2022-10-11T19:51:49.155Z,61.24
2022-10-11T19:54:17.857Z,61.54
2022-10-11T19:56:50.766Z,61.63
2022-10-11T19:59:18.120Z,61.60
2022-10-11T20:01:51.062Z,61.68
2022-10-11T20:04:51.110Z,61.59
2022-10-11T20:07:07.832Z,61.70
2022-10-11T20:09:35.463Z,61.86
2022-10-11T20:12:03.987Z,61.75
2022-10-11T20:14:31.179Z,61.77
2022-10-11T20:16:58.110Z,62.11
2022-10-11T20:19:30.682Z,62.08
2022-10-11T20:21:58.224Z,62.17
2022-10-11T20:24:27.492Z,62.64
2022-10-11T20:26:55.180Z,62.65
2022-10-11T20:29:24.270Z,62.75
2022-10-11T20:31:52.145Z,62.38
2022-10-11T20:34:18.779Z,62.33
2022-10-11T20:36:49.119Z,62.15
2022-10-11T20:39:16.914Z,62.18
2022-10-11T20:42:15.504Z,62.32
2022-10-11T20:45:15.061Z,62.85
2022-10-11T20:48:03.564Z,62.69
2022-10-11T20:50:35.251Z,62.58
2022-10-11T20:53:18.143Z,62.51
2022-10-11T20:56:47.177Z,62.64
2022-10-11T20:59:45.483Z,62.64
2022-10-11T21:02:43.469Z,63.05
2022-10-11T21:05:26.951Z,62.95
2022-10-11T21:07:53.823Z,63.07
2022-10-11T21:10:20.619Z,62.65
2022-10-11T21:12:47.469Z,62.98
2022-10-11T21:15:14.742Z,62.86
2022-10-11T21:17:41.668Z,62.84
2022-10-11T21:20:08.808Z,62.87
2022-10-11T21:22:36.564Z,62.98
2022-10-11T21:25:06.294Z,62.55
2022-10-11T21:27:33.365Z,63.18
2022-10-11T21:30:00.224Z,63.41
2022-10-11T21:32:27.016Z,63.04
2022-10-11T21:34:53.888Z,63.21
2022-10-11T21:37:20.799Z,63.30
2022-10-11T21:39:47.356Z,63.22
2022-10-11T21:42:14.994Z,63.32
2022-10-11T21:44:43.589Z,63.18
2022-10-11T21:47:12.510Z,63.42
2022-10-11T21:49:39.597Z,63.64
2022-10-11T21:52:09.063Z,63.56
2022-10-11T21:54:35.780Z,64.01
2022-10-11T21:57:02.348Z,64.66
2022-10-11T21:59:29.356Z,64.48
2022-10-11T22:02:00.761Z,64.85
2022-10-11T22:04:29.084Z,65.15
2022-10-11T22:06:55.748Z,64.89
2022-10-11T22:09:22.532Z,64.73
2022-10-11T22:11:49.488Z,65.25
2022-10-11T22:14:16.743Z,65.03
2022-10-11T22:16:43.595Z,65.41
2022-10-11T22:19:10.330Z,65.70
2022-10-11T22:21:40.195Z,65.79
2022-10-11T22:24:10.911Z,65.79
2022-10-11T22:26:37.634Z,65.86
2022-10-11T22:29:04.289Z,65.90
2022-10-11T22:31:32.439Z,65.55
2022-10-11T22:34:00.520Z,65.52
2022-10-11T22:36:28.757Z,66.01
2022-10-11T22:38:55.318Z,65.46
2022-10-11T22:41:22.171Z,65.91
2022-10-11T22:43:48.926Z,66.08
2022-10-11T22:46:15.564Z,66.14
2022-10-11T22:48:42.647Z,66.08
2022-10-11T22:51:09.369Z,65.77
2022-10-11T22:53:36.138Z,65.12
2022-10-11T22:56:03.097Z,65.05
2022-10-11T22:58:29.797Z,65.47
2022-10-11T23:00:56.448Z,66.02
2022-10-11T23:03:24.525Z,65.59
2022-10-11T23:05:57.378Z,66.08
2022-10-11T23:08:24.825Z,66.32
2022-10-11T23:10:52.568Z,66.42
2022-10-11T23:13:20.320Z,66.73
2022-10-11T23:15:47.071Z,66.58
2022-10-11T23:18:16.512Z,66.86
2022-10-11T23:20:43.299Z,66.75
2022-10-11T23:23:09.953Z,67.04
2022-10-11T23:25:36.701Z,67.00
2022-10-11T23:28:03.677Z,67.26
2022-10-11T23:30:30.959Z,67.18
2022-10-11T23:32:57.882Z,66.98
2022-10-11T23:35:24.921Z,66.93
2022-10-11T23:37:54.413Z,66.97
2022-10-11T23:40:21.294Z,66.96
2022-10-11T23:42:48.314Z,66.62
2022-10-11T23:45:15.783Z,65.27
2022-10-11T23:47:42.429Z,64.79
2022-10-11T23:50:09.604Z,65.59
2022-10-11T23:52:36.602Z,65.87
2022-10-11T23:55:04.387Z,66.02
2022-10-11T23:57:31.039Z,65.53
2022-10-11T23:59:57.641Z,65.86
